createdAt,value
2022-10-23T00:01:39.694Z,101610.97
2022-10-23T00:04:17.044Z,101603.94
2022-10-23T00:06:45.075Z,101599.59
2022-10-23T00:09:17.382Z,101594.28
2022-10-23T00:11:47.442Z,101597.00
2022-10-23T00:14:16.302Z,101598.84
2022-10-23T00:16:43.679Z,101606.00
2022-10-23T00:19:10.878Z,101612.34
2022-10-23T00:21:38.669Z,101616.81
2022-10-23T00:24:06.614Z,101616.84
2022-10-23T00:26:33.536Z,101615.09
2022-10-23T00:29:00.587Z,101609.84
2022-10-23T00:31:27.465Z,101610.78
2022-10-23T00:33:54.381Z,101603.69
2022-10-23T00:36:22.288Z,101609.97
2022-10-23T00:38:50.721Z,101611.72
2022-10-23T00:41:27.898Z,101595.81
2022-10-23T00:44:02.143Z,101600.25
2022-10-23T00:46:29.453Z,101598.56
2022-10-23T00:48:57.520Z,101594.16
2022-10-23T00:51:27.129Z,101592.41
2022-10-23T00:54:06.508Z,101594.16
2022-10-23T00:56:42.404Z,101589.78
2022-10-23T00:59:09.282Z,101593.28
2022-10-23T01:01:36.774Z,101598.66
2022-10-23T01:04:06.689Z,101596.03
2022-10-23T01:06:42.465Z,101587.13
2022-10-23T01:09:43.711Z,101589.81
2022-10-23T01:12:23.023Z,101588.03
2022-10-23T01:15:23.839Z,101602.28
2022-10-23T01:18:06.360Z,101601.41
2022-10-23T01:20:43.706Z,101586.31
2022-10-23T01:23:35.957Z,101583.66
2022-10-23T01:26:24.164Z,101588.09
2022-10-23T01:29:08.832Z,101589.03
2022-10-23T01:32:08.026Z,101585.44
2022-10-23T01:35:04.587Z,101584.56
2022-10-23T01:38:05.752Z,101578.34
2022-10-23T01:40:48.748Z,101576.56
2022-10-23T01:43:26.151Z,101571.19
2022-10-23T01:46:01.923Z,101570.28
2022-10-23T01:48:31.498Z,101566.75
2022-10-23T01:51:03.970Z,101564.97
2022-10-23T01:53:36.258Z,101566.75
2022-10-23T01:56:09.260Z,101557.88
2022-10-23T01:58:37.034Z,101562.28
2022-10-23T02:01:07.472Z,101550.78
2022-10-23T02:03:37.795Z,101553.47
2022-10-23T02:06:05.080Z,101545.50
2022-10-23T02:08:32.408Z,101534.81
2022-10-23T02:11:29.716Z,101533.94
2022-10-23T02:14:34.553Z,101530.41
2022-10-23T02:17:37.059Z,101529.53
2022-10-23T02:20:22.674Z,101527.78
2022-10-23T02:23:00.359Z,101524.22
2022-10-23T02:26:22.076Z,101520.69
2022-10-23T02:29:18.548Z,101513.69
2022-10-23T02:31:45.764Z,101513.72
2022-10-23T02:34:12.908Z,101504.88
2022-10-23T02:36:39.779Z,101497.81
2022-10-23T02:39:06.752Z,101494.28
2022-10-23T02:41:56.515Z,101497.81
2022-10-23T02:45:02.758Z,101497.84
2022-10-23T02:48:04.476Z,101508.50
2022-10-23T02:50:49.771Z,101501.47
2022-10-23T02:53:26.396Z,101498.84
2022-10-23T02:56:08.863Z,101505.03
2022-10-23T02:59:11.034Z,101504.16
2022-10-23T03:02:07.090Z,101502.41
2022-10-23T03:04:35.121Z,101497.09
2022-10-23T03:07:02.210Z,101487.38
2022-10-23T03:09:29.632Z,101486.50
2022-10-23T03:11:56.563Z,101479.44
2022-10-23T03:14:23.453Z,101484.72
2022-10-23T03:16:50.304Z,101476.72
2022-10-23T03:19:17.200Z,101469.59
2022-10-23T03:21:44.096Z,101470.38
2022-10-23T03:24:10.992Z,101472.97
2022-10-23T03:26:37.898Z,101470.28
2022-10-23T03:29:04.790Z,101472.91
2022-10-23T03:31:31.643Z,101470.19
2022-10-23T03:33:59.383Z,101464.03
2022-10-23T03:36:26.456Z,101464.81
2022-10-23T03:38:53.784Z,101458.56
2022-10-23T03:41:20.673Z,101455.84
2022-10-23T03:43:47.542Z,101450.50
2022-10-23T03:46:14.550Z,101444.25
2022-10-23T03:48:41.999Z,101447.81
2022-10-23T03:51:08.908Z,101454.03
2022-10-23T03:53:36.171Z,101450.47
2022-10-23T03:56:03.708Z,101439.84
2022-10-23T03:58:31.437Z,101435.41
2022-10-23T04:00:58.993Z,101436.28
2022-10-23T04:03:26.086Z,101425.63
2022-10-23T04:05:53.031Z,101419.47
2022-10-23T04:08:20.245Z,101411.47
2022-10-23T04:10:47.343Z,101412.38
2022-10-23T04:13:14.295Z,101402.63
2022-10-23T04:15:41.204Z,101407.94
2022-10-23T04:18:08.072Z,101403.50
2022-10-23T04:20:35.002Z,101395.56
2022-10-23T04:23:01.902Z,101398.19
2022-10-23T04:25:28.815Z,101392.84
2022-10-23T04:27:55.674Z,101392.84
2022-10-23T04:30:22.547Z,101388.41
2022-10-23T04:32:53.287Z,101386.63
2022-10-23T04:35:20.820Z,101385.75
2022-10-23T04:37:47.736Z,101376.84
2022-10-23T04:40:14.732Z,101373.31
2022-10-23T04:42:41.953Z,101371.53
2022-10-23T04:45:10.070Z,101367.97
2022-10-23T04:47:36.998Z,101368.03
2022-10-23T04:50:04.956Z,101373.38
2022-10-23T04:52:31.848Z,101370.72
2022-10-23T04:54:58.700Z,101371.59
2022-10-23T04:57:25.575Z,101366.28
2022-10-23T04:59:52.425Z,101356.53
2022-10-23T05:02:19.373Z,101361.00
2022-10-23T05:04:46.228Z,101365.38
2022-10-23T05:07:13.110Z,101360.00
2022-10-23T05:09:40.087Z,101350.28
2022-10-23T05:12:06.975Z,101354.69
2022-10-23T05:14:33.868Z,101358.19
2022-10-23T05:17:08.005Z,101358.19
2022-10-23T05:19:46.072Z,101350.19
2022-10-23T05:22:14.378Z,101351.06
2022-10-23T05:24:41.277Z,101351.94
2022-10-23T05:27:08.143Z,101351.03
2022-10-23T05:29:35.052Z,101357.16
2022-10-23T05:32:04.984Z,101354.47
2022-10-23T05:34:35.655Z,101352.69
2022-10-23T05:37:04.791Z,101354.38
2022-10-23T05:39:33.152Z,101357.00
2022-10-23T05:42:00.572Z,101351.63
2022-10-23T05:44:27.450Z,101347.94
2022-10-23T05:46:54.344Z,101344.34
2022-10-23T05:49:23.732Z,101344.25
2022-10-23T05:51:50.719Z,101351.28
2022-10-23T05:54:17.712Z,101345.00
2022-10-23T05:56:44.647Z,101338.72
2022-10-23T05:59:11.523Z,101343.06
2022-10-23T06:01:38.582Z,101344.72
2022-10-23T06:04:06.260Z,101333.13
2022-10-23T06:06:33.173Z,101331.34
2022-10-23T06:09:00.132Z,101325.09
2022-10-23T06:11:27.053Z,101334.81
2022-10-23T06:13:54.010Z,101332.09
2022-10-23T06:16:25.338Z,101326.78
2022-10-23T06:18:52.225Z,101320.53
2022-10-23T06:21:19.627Z,101322.22
2022-10-23T06:23:47.388Z,101312.44
2022-10-23T06:26:16.636Z,101306.22
2022-10-23T06:28:43.620Z,101301.78
2022-10-23T06:31:14.477Z,101310.69
2022-10-23T06:33:41.972Z,101310.63
2022-10-23T06:36:10.422Z,101311.50
2022-10-23T06:38:40.890Z,101299.94
2022-10-23T06:41:15.511Z,101295.50
2022-10-23T06:43:42.689Z,101291.91
2022-10-23T06:46:10.087Z,101296.38
2022-10-23T06:48:37.168Z,101291.84
2022-10-23T06:51:09.759Z,101282.97
2022-10-23T06:53:38.401Z,101282.94
2022-10-23T06:56:07.301Z,101281.97
2022-10-23T06:58:35.934Z,101285.47
2022-10-23T07:01:06.953Z,101268.56
2022-10-23T07:03:34.775Z,101272.94
2022-10-23T07:06:08.389Z,101272.03
2022-10-23T07:08:36.059Z,101266.66
2022-10-23T07:11:07.117Z,101258.50
2022-10-23T07:13:36.063Z,101269.09
2022-10-23T07:16:21.287Z,101284.13
2022-10-23T07:18:49.889Z,101275.16
2022-10-23T07:21:16.779Z,101277.66
2022-10-23T07:23:43.736Z,101272.28
2022-10-23T07:26:15.166Z,101265.09
2022-10-23T07:28:48.067Z,101271.16
2022-10-23T07:31:15.284Z,101270.16
2022-10-23T07:33:42.153Z,101267.38
2022-10-23T07:36:10.370Z,101270.75
2022-10-23T07:38:37.277Z,101269.72
2022-10-23T07:41:07.775Z,101265.09
2022-10-23T07:43:37.592Z,101256.03
2022-10-23T07:46:05.194Z,101254.06
2022-10-23T07:48:32.077Z,101258.34
2022-10-23T07:51:01.732Z,101261.69
2022-10-23T07:53:29.031Z,101257.91
2022-10-23T07:55:59.314Z,101240.84
2022-10-23T07:58:27.754Z,101243.28
2022-10-23T08:01:00.209Z,101236.94
2022-10-23T08:03:29.383Z,101238.50
2022-10-23T08:05:57.878Z,101234.75
2022-10-23T08:08:26.663Z,101231.00
2022-10-23T08:10:55.660Z,101231.66
2022-10-23T08:13:23.306Z,101230.56
2022-10-23T08:15:52.788Z,101237.53
2022-10-23T08:18:20.136Z,101237.25
2022-10-23T08:20:48.920Z,101237.97
2022-10-23T08:23:18.667Z,101227.88
2022-10-23T08:25:47.312Z,101222.53
2022-10-23T08:28:15.629Z,101221.50
2022-10-23T08:30:42.551Z,101224.84
2022-10-23T08:33:09.881Z,101229.97
2022-10-23T08:35:38.636Z,101217.50
2022-10-23T08:38:06.627Z,101214.47
2022-10-23T08:40:36.096Z,101208.00
2022-10-23T08:43:06.898Z,101201.66
2022-10-23T08:46:04.130Z,101195.31
2022-10-23T08:48:48.218Z,101182.63
2022-10-23T08:51:21.899Z,101189.41
2022-10-23T08:54:06.567Z,101187.44
2022-10-23T08:56:38.276Z,101178.50
2022-10-23T08:59:24.967Z,101179.16
2022-10-23T09:02:22.299Z,101178.06
2022-10-23T09:04:52.837Z,101178.88
2022-10-23T09:07:34.018Z,101172.28
2022-10-23T09:10:30.662Z,101166.59
2022-10-23T09:13:12.780Z,101168.16
2022-10-23T09:15:51.222Z,101156.25
2022-10-23T09:18:18.116Z,101150.56
2022-10-23T09:20:47.181Z,101152.25
2022-10-23T09:23:21.483Z,101154.06
2022-10-23T09:25:55.361Z,101149.19
2022-10-23T09:28:32.349Z,101141.16
2022-10-23T09:31:11.859Z,101142.88
2022-10-23T09:33:39.662Z,101140.91
2022-10-23T09:36:08.378Z,101143.47
2022-10-23T09:38:45.294Z,101146.38
2022-10-23T09:41:54.138Z,101143.56
2022-10-23T09:44:26.672Z,101135.56
2022-10-23T09:47:07.425Z,101127.53
2022-10-23T09:49:35.691Z,101125.78
2022-10-23T09:52:30.240Z,101124.03
2022-10-23T09:55:01.363Z,101120.28
2022-10-23T09:57:38.154Z,101106.63
2022-10-23T10:00:22.319Z,101111.31
2022-10-23T10:03:00.324Z,101110.13
2022-10-23T10:05:31.592Z,101112.69
2022-10-23T10:08:44.405Z,101107.97
2022-10-23T10:11:33.591Z,101097.31
2022-10-23T10:14:40.932Z,101105.00
2022-10-23T10:17:34.706Z,101090.66
2022-10-23T10:20:25.192Z,101093.09
2022-10-23T10:23:18.348Z,101087.66
2022-10-23T10:26:11.249Z,101086.53
2022-10-23T10:29:10.989Z,101077.69
2022-10-23T10:32:04.791Z,101062.13
2022-10-23T10:34:52.585Z,101047.75
2022-10-23T10:37:46.108Z,101039.72
2022-10-23T10:40:38.487Z,101051.09
2022-10-23T10:43:33.675Z,101043.06
2022-10-23T10:46:37.454Z,101049.03
2022-10-23T10:49:23.468Z,101032.97
2022-10-23T10:52:13.875Z,101024.88
2022-10-23T10:54:55.220Z,101016.56
2022-10-23T10:57:43.734Z,101010.88
2022-10-23T11:00:22.083Z,100998.34
2022-10-23T11:02:59.787Z,100995.59
2022-10-23T11:05:43.566Z,100986.69
2022-10-23T11:08:50.054Z,100996.03
2022-10-23T11:11:34.982Z,100993.28
2022-10-23T11:14:02.705Z,100987.91
2022-10-23T11:16:37.901Z,100981.38
2022-10-23T11:19:28.991Z,100982.81
2022-10-23T11:22:07.138Z,100980.03
2022-10-23T11:24:58.240Z,100985.72
2022-10-23T11:27:46.881Z,100978.16
2022-10-23T11:30:35.976Z,100970.59
2022-10-23T11:33:44.006Z,100953.47
2022-10-23T11:36:18.683Z,100939.78
2022-10-23T11:38:49.643Z,100930.53
2022-10-23T11:41:28.379Z,100928.94
2022-10-23T11:44:03.904Z,100926.91
2022-10-23T11:46:39.927Z,100932.75
2022-10-23T11:49:21.209Z,100929.22
2022-10-23T11:51:48.218Z,100911.78
2022-10-23T11:54:15.112Z,100905.13
2022-10-23T11:57:03.185Z,100919.78
2022-10-23T11:59:53.879Z,100909.38
2022-10-23T12:02:36.698Z,100903.78
2022-10-23T12:05:25.646Z,100894.66
2022-10-23T12:08:02.342Z,100897.97
2022-10-23T12:10:36.273Z,100904.03
2022-10-23T12:13:06.112Z,100905.50
2022-10-23T12:15:36.885Z,100896.41
2022-10-23T12:18:17.935Z,100894.50
2022-10-23T12:20:52.524Z,100885.06
2022-10-23T12:24:01.299Z,100884.44
2022-10-23T12:26:45.728Z,100866.25
2022-10-23T12:29:50.416Z,100857.91
2022-10-23T12:32:36.263Z,100853.16
2022-10-23T12:35:20.754Z,100848.63
2022-10-23T12:38:14.348Z,100851.81
2022-10-23T12:41:11.402Z,100842.31
2022-10-23T12:43:39.927Z,100843.88
2022-10-23T12:46:47.778Z,100842.88
2022-10-23T12:49:21.460Z,100835.28
2022-10-23T12:52:04.399Z,100827.31
2022-10-23T12:54:33.667Z,100831.97
2022-10-23T12:57:00.676Z,100821.88
2022-10-23T12:59:38.672Z,100819.19
2022-10-23T13:02:30.610Z,100814.56
2022-10-23T13:05:03.458Z,100790.19
2022-10-23T13:07:35.917Z,100788.38
2022-10-23T13:10:04.159Z,100788.09
2022-10-23T13:12:34.468Z,100783.38
2022-10-23T13:15:07.583Z,100782.34
2022-10-23T13:17:43.807Z,100781.78
2022-10-23T13:20:21.584Z,100783.69
2022-10-23T13:23:00.593Z,100780.81
2022-10-23T13:25:34.850Z,100762.56
2022-10-23T13:28:07.865Z,100764.50
2022-10-23T13:30:42.961Z,100753.75
2022-10-23T13:33:24.975Z,100744.03
2022-10-23T13:35:57.665Z,100739.44
2022-10-23T13:38:39.601Z,100731.00
2022-10-23T13:41:14.967Z,100731.00
2022-10-23T13:43:42.651Z,100727.38
2022-10-23T13:46:16.279Z,100722.28
2022-10-23T13:48:43.376Z,100714.41
2022-10-23T13:51:28.301Z,100712.47
2022-10-23T13:53:57.030Z,100704.88
2022-10-23T13:56:26.290Z,100698.00
2022-10-23T13:58:54.323Z,100694.34
2022-10-23T14:01:31.718Z,100698.94
2022-10-23T14:03:59.904Z,100694.91
2022-10-23T14:06:26.786Z,100691.25
2022-10-23T14:08:53.733Z,100689.81
2022-10-23T14:11:21.283Z,100691.66
2022-10-23T14:13:49.172Z,100686.84
2022-10-23T14:16:18.963Z,100674.06
2022-10-23T14:18:45.907Z,100680.59
2022-10-23T14:21:22.637Z,100673.56
2022-10-23T14:23:51.077Z,100672.34
2022-10-23T14:26:25.295Z,100670.69
2022-10-23T14:28:54.587Z,100660.03
2022-10-23T14:31:21.896Z,100665.78
2022-10-23T14:33:55.840Z,100664.53
2022-10-23T14:36:23.647Z,100671.66
2022-10-23T14:38:55.743Z,100668.88
2022-10-23T14:41:22.822Z,100669.84
2022-10-23T14:43:49.756Z,100668.88
2022-10-23T14:46:20.225Z,100658.31
2022-10-23T14:48:49.447Z,100671.66
2022-10-23T14:51:30.039Z,100669.25
2022-10-23T14:54:01.670Z,100668.59
2022-10-23T14:56:36.814Z,100658.72
2022-10-23T14:59:04.814Z,100661.41
2022-10-23T15:01:43.486Z,100665.22
2022-10-23T15:04:14.339Z,100657.94
2022-10-23T15:06:41.868Z,100635.66
2022-10-23T15:09:09.047Z,100635.66
2022-10-23T15:11:35.935Z,100632.97
2022-10-23T15:14:02.820Z,100635.75
2022-10-23T15:16:29.738Z,100636.03
2022-10-23T15:18:56.658Z,100636.03
2022-10-23T15:21:23.933Z,100638.16
2022-10-23T15:23:51.143Z,100629.72
2022-10-23T15:26:22.922Z,100619.84
2022-10-23T15:29:00.022Z,100612.75
2022-10-23T15:31:29.863Z,100614.19
2022-10-23T15:33:57.825Z,100604.19
2022-10-23T15:36:25.127Z,100601.72
2022-10-23T15:38:52.284Z,100590.09
2022-10-23T15:41:28.652Z,100596.53
2022-10-23T15:43:55.601Z,100593.06
2022-10-23T15:46:22.507Z,100591.44
2022-10-23T15:48:49.388Z,100589.69
2022-10-23T15:51:16.396Z,100597.88
2022-10-23T15:53:43.292Z,100590.00
2022-10-23T15:56:10.296Z,100580.28
2022-10-23T15:58:37.187Z,100576.63
2022-10-23T16:01:06.505Z,100568.22
2022-10-23T16:03:38.862Z,100557.38
2022-10-23T16:06:13.647Z,100554.69
2022-10-23T16:08:41.468Z,100548.53
2022-10-23T16:11:37.512Z,100544.91
2022-10-23T16:14:05.277Z,100545.25
2022-10-23T16:16:33.951Z,100555.06
2022-10-23T16:19:04.927Z,100549.88
2022-10-23T16:21:35.734Z,100560.59
2022-10-23T16:24:06.240Z,100556.09
2022-10-23T16:26:34.321Z,100553.53
2022-10-23T16:29:05.773Z,100548.25
2022-10-23T16:31:33.892Z,100559.09
2022-10-23T16:34:02.586Z,100551.03
2022-10-23T16:36:29.978Z,100542.13
2022-10-23T16:38:57.121Z,100548.25
2022-10-23T16:41:24.242Z,100542.22
2022-10-23T16:43:51.630Z,100528.78
2022-10-23T16:46:21.647Z,100542.97
2022-10-23T16:48:50.956Z,100538.66
2022-10-23T16:51:22.387Z,100535.28
2022-10-23T16:53:49.419Z,100527.38
2022-10-23T16:56:20.239Z,100533.47
2022-10-23T16:58:47.434Z,100533.38
2022-10-23T17:01:25.241Z,100535.41
2022-10-23T17:03:53.439Z,100542.69
2022-10-23T17:06:24.660Z,100546.44
2022-10-23T17:08:52.439Z,100533.28
2022-10-23T17:11:23.443Z,100535.88
2022-10-23T17:14:03.617Z,100538.78
2022-10-23T17:16:35.830Z,100545.84
2022-10-23T17:19:15.811Z,100552.06
2022-10-23T17:21:53.322Z,100550.56
2022-10-23T17:24:20.676Z,100545.19
2022-10-23T17:26:48.362Z,100542.50
2022-10-23T17:29:15.686Z,100533.78
2022-10-23T17:31:46.549Z,100536.53
2022-10-23T17:34:18.472Z,100533.78
2022-10-23T17:36:49.527Z,100533.69
2022-10-23T17:39:20.065Z,100533.84
2022-10-23T17:41:47.499Z,100532.03
2022-10-23T17:44:14.714Z,100533.94
2022-10-23T17:46:41.920Z,100525.91
2022-10-23T17:49:09.785Z,100527.72
2022-10-23T17:51:37.267Z,100541.06
2022-10-23T17:54:08.630Z,100533.00
2022-10-23T17:56:38.280Z,100534.91
2022-10-23T17:59:09.953Z,100537.59
2022-10-23T18:01:37.158Z,100525.81
2022-10-23T18:04:07.266Z,100520.63
2022-10-23T18:06:41.779Z,100530.53
2022-10-23T18:09:08.929Z,100517.09
2022-10-23T18:11:42.609Z,100516.97
2022-10-23T18:14:12.906Z,100514.19
2022-10-23T18:16:40.680Z,100519.47
2022-10-23T18:19:07.906Z,100515.66
2022-10-23T18:21:35.813Z,100527.25
2022-10-23T18:24:03.892Z,100521.69
2022-10-23T18:26:34.964Z,100519.97
2022-10-23T18:29:04.847Z,100512.47
2022-10-23T18:31:31.923Z,100507.69
2022-10-23T18:34:03.106Z,100516.91
2022-10-23T18:36:34.379Z,100491.78
2022-10-23T18:39:01.799Z,100486.94
2022-10-23T18:41:35.659Z,100491.38
2022-10-23T18:44:03.559Z,100495.78
2022-10-23T18:46:30.441Z,100500.09
2022-10-23T18:48:57.358Z,100490.13
2022-10-23T18:51:29.352Z,100472.97
2022-10-23T18:53:59.659Z,100467.69
2022-10-23T18:56:27.763Z,100503.25
2022-10-23T18:59:01.631Z,100485.22
2022-10-23T19:01:31.017Z,100481.66
2022-10-23T19:04:00.702Z,100488.47
2022-10-23T19:06:29.033Z,100483.19
2022-10-23T19:08:56.859Z,100479.66
2022-10-23T19:11:26.524Z,100446.09
2022-10-23T19:13:53.508Z,100418.16
2022-10-23T19:16:24.500Z,100450.91
2022-10-23T19:18:59.195Z,100466.25
2022-10-23T19:21:33.021Z,100446.13
2022-10-23T19:24:09.159Z,100451.50
2022-10-23T19:26:38.103Z,100472.59
2022-10-23T19:29:07.768Z,100474.78
2022-10-23T19:31:35.002Z,100465.69
2022-10-23T19:34:01.884Z,100472.38
2022-10-23T19:36:28.743Z,100463.69
2022-10-23T19:38:55.661Z,100460.50
2022-10-23T19:41:23.167Z,100481.97
2022-10-23T19:43:50.057Z,100477.38
2022-10-23T19:46:17.047Z,100486.72
2022-10-23T19:48:45.604Z,100490.53
2022-10-23T19:51:13.456Z,100501.34
2022-10-23T19:53:42.519Z,100504.44
2022-10-23T19:56:11.398Z,100511.72
2022-10-23T19:58:39.551Z,100507.22
2022-10-23T20:01:16.530Z,100525.31
2022-10-23T20:03:45.475Z,100521.13
2022-10-23T20:06:16.141Z,100531.44
2022-10-23T20:08:43.517Z,100519.81
2022-10-23T20:11:24.382Z,100529.91
2022-10-23T20:13:52.016Z,100538.91
2022-10-23T20:16:27.053Z,100542.72
2022-10-23T20:18:54.577Z,100533.03
2022-10-23T20:21:22.803Z,100542.16
2022-10-23T20:23:50.039Z,100548.63
2022-10-23T20:26:21.797Z,100552.53
2022-10-23T20:28:53.289Z,100556.50
2022-10-23T20:31:23.028Z,100559.56
2022-10-23T20:33:50.859Z,100562.50
2022-10-23T20:36:32.946Z,100585.28
2022-10-23T20:39:05.925Z,100577.50
2022-10-23T20:41:36.710Z,100573.28
2022-10-23T20:44:08.989Z,100588.75
2022-10-23T20:46:36.144Z,100583.84
2022-10-23T20:49:03.655Z,100591.09
2022-10-23T20:51:30.799Z,100586.19
2022-10-23T20:53:57.892Z,100596.34
2022-10-23T20:56:32.304Z,100603.72
2022-10-23T20:59:13.243Z,100600.34
2022-10-23T21:01:49.370Z,100597.66
2022-10-23T21:04:22.934Z,100612.16
2022-10-23T21:07:11.309Z,100587.25
2022-10-23T21:09:39.885Z,100582.97
2022-10-23T21:12:07.640Z,100587.63
2022-10-23T21:14:35.597Z,100599.38
2022-10-23T21:17:02.914Z,100607.31
2022-10-23T21:19:29.800Z,100608.44
2022-10-23T21:21:57.275Z,100612.84
2022-10-23T21:24:24.536Z,100602.13
2022-10-23T21:26:52.042Z,100589.69
2022-10-23T21:29:20.316Z,100586.16
2022-10-23T21:32:00.950Z,100585.38
2022-10-23T21:34:28.347Z,100589.94
2022-10-23T21:39:43.543Z,100590.03
2022-10-23T21:42:12.092Z,100588.22
2022-10-23T21:44:39.013Z,100579.22
2022-10-23T21:47:06.145Z,100587.34
2022-10-23T21:49:33.117Z,100595.47
2022-10-23T21:52:00.020Z,100603.41
2022-10-23T21:54:27.059Z,100606.03
2022-10-23T21:56:54.166Z,100596.25
2022-10-23T21:59:27.801Z,100605.16
2022-10-23T22:01:57.244Z,100598.84
2022-10-23T22:04:24.288Z,100600.50
2022-10-23T22:06:51.279Z,100609.47
2022-10-23T22:09:20.964Z,100605.66
2022-10-23T22:11:52.598Z,100611.88
2022-10-23T22:14:20.473Z,100615.50
2022-10-23T22:16:47.925Z,100594.88
2022-10-23T22:19:17.452Z,100594.72
2022-10-23T22:21:44.821Z,100595.66
2022-10-23T22:24:12.100Z,100597.41
2022-10-23T22:26:47.666Z,100594.63
2022-10-23T22:29:18.624Z,100591.09
2022-10-23T22:31:48.858Z,100604.72
2022-10-23T22:34:51.791Z,100589.50
2022-10-23T22:37:19.532Z,100591.41
2022-10-23T22:39:47.425Z,100591.25
2022-10-23T22:42:14.288Z,100592.81
2022-10-23T22:44:41.155Z,100600.66
2022-10-23T22:47:08.072Z,100576.56
2022-10-23T22:49:35.007Z,100586.41
2022-10-23T22:52:01.948Z,100584.44
2022-10-23T22:54:31.131Z,100575.59
2022-10-23T22:56:58.290Z,100574.75
2022-10-23T22:59:25.182Z,100575.81
2022-10-23T23:01:52.213Z,100580.97
2022-10-23T23:04:37.240Z,100579.22
2022-10-23T23:07:08.158Z,100567.50
2022-10-23T23:09:44.313Z,100573.78
2022-10-23T23:12:13.703Z,100571.03
2022-10-23T23:14:41.466Z,100560.16
2022-10-23T23:17:09.801Z,100556.59
2022-10-23T23:19:37.395Z,100554.88
2022-10-23T23:22:05.237Z,100553.06
2022-10-23T23:24:32.467Z,100553.31
2022-10-23T23:26:59.362Z,100547.38
2022-10-23T23:29:29.360Z,100545.72
2022-10-23T23:31:56.222Z,100544.13
2022-10-23T23:34:23.145Z,100542.59
2022-10-23T23:36:50.047Z,100546.06
2022-10-23T23:39:17.444Z,100540.97
2022-10-23T23:41:44.324Z,100534.81
2022-10-23T23:44:11.267Z,100526.69
2022-10-23T23:46:38.148Z,100527.47
2022-10-23T23:49:05.175Z,100521.97
2022-10-23T23:51:32.431Z,100517.91
2022-10-23T23:53:59.420Z,100525.06
2022-10-23T23:56:26.429Z,100520.66
2022-10-23T23:58:53.330Z,100516.94
